Time;durP1;ratioP1;P1;durP2;ratioP2;P2;SDS_P1;SDS_P2;PMS_P1;PMS_P2;Temp;Humidity;BMP_temperature;BMP_pressure;BME280_temperature;BME280_humidity;BME280_pressure;Samples;Min_cycle;Max_cycle;Signal;HPM_P1;HPM_P2
2022/03/13 00:01:37;;;;;;;19.93;12.13;;;;;;;5.42;74.88;99108.66;5153156;27;20221;-79
2022/03/13 00:04:11;;;;;;;22.97;13.33;;;;;;;5.41;73.22;99110.41;5075734;28;20189;-79
2022/03/13 00:06:44;;;;;;;21.10;12.87;;;;;;;5.44;72.74;99115.53;5032258;28;20209;-78
2022/03/13 00:09:15;;;;;;;18.77;11.83;;;;;;;5.53;71.10;99106.41;4988512;28;20194;-79
2022/03/13 00:11:45;;;;;;;19.83;11.70;;;;;;;5.47;70.88;99110.13;5026977;28;20272;-78
2022/03/13 00:14:13;;;;;;;19.40;12.03;;;;;;;5.43;70.85;99107.72;5037297;28;20200;-77
2022/03/13 00:16:42;;;;;;;17.03;11.17;;;;;;;5.29;71.09;99110.09;4989255;28;20190;-78
2022/03/13 00:19:11;;;;;;;19.03;11.20;;;;;;;5.28;71.66;99103.13;4987403;28;20198;-78
2022/03/13 00:21:43;;;;;;;18.43;11.20;;;;;;;5.25;72.80;99098.00;4963193;28;20298;-78
2022/03/13 00:24:14;;;;;;;17.33;11.17;;;;;;;5.10;75.18;99097.75;4985578;28;20195;-78
2022/03/13 00:26:46;;;;;;;17.07;10.73;;;;;;;5.26;74.81;99091.84;5013804;28;20191;-78
2022/03/13 00:29:14;;;;;;;17.63;10.43;;;;;;;5.24;74.94;99094.53;5015304;28;20202;-80
2022/03/13 00:31:43;;;;;;;15.70;10.27;;;;;;;5.17;76.20;99090.47;5055711;28;20238;-77
2022/03/13 00:34:14;;;;;;;14.47;9.50;;;;;;;5.16;76.50;99094.88;5069830;28;20196;-77
2022/03/13 00:36:43;;;;;;;12.87;9.60;;;;;;;5.13;76.17;99086.28;5073891;28;20211;-78
2022/03/13 00:39:13;;;;;;;14.03;9.83;;;;;;;5.14;75.84;99086.22;4997854;28;20242;-78
2022/03/13 00:41:41;;;;;;;16.87;10.47;;;;;;;5.33;74.96;99093.28;5057156;28;20702;-78
2022/03/13 00:44:14;;;;;;;16.33;10.30;;;;;;;5.23;75.02;99089.38;5053154;28;20284;-77
2022/03/13 00:46:44;;;;;;;15.37;9.57;;;;;;;4.98;78.33;99089.53;5055855;28;20302;-79
2022/03/13 00:49:14;;;;;;;15.03;9.70;;;;;;;4.69;81.01;99089.00;5051527;28;20205;-78
2022/03/13 00:51:44;;;;;;;15.83;10.03;;;;;;;4.75;81.53;99090.53;5053505;28;20197;-79
2022/03/13 00:54:13;;;;;;;14.63;9.70;;;;;;;4.64;83.18;99090.97;5051745;28;20306;-78
2022/03/13 00:56:42;;;;;;;18.00;9.83;;;;;;;4.64;81.33;99093.59;5054588;28;20232;-78
2022/03/13 00:59:12;;;;;;;15.97;10.33;;;;;;;4.73;78.67;99087.97;5046656;28;20239;-78
2022/03/13 01:01:40;;;;;;;14.03;8.97;;;;;;;4.67;76.10;99089.97;5047981;28;20235;-78
2022/03/13 01:04:14;;;;;;;14.80;9.50;;;;;;;4.70;76.20;99081.97;5069923;28;20183;-79
2022/03/13 01:06:45;;;;;;;15.07;9.87;;;;;;;4.97;73.79;99088.69;5014067;28;20696;-78
2022/03/13 01:09:17;;;;;;;13.23;8.93;;;;;;;4.83;70.96;99083.19;5007076;28;20187;-78
2022/03/13 01:11:46;;;;;;;15.00;9.37;;;;;;;4.91;70.48;99083.69;5009401;28;20191;-79
2022/03/13 01:14:17;;;;;;;14.83;8.87;;;;;;;4.85;69.95;99084.81;5008686;28;20187;-79
2022/03/13 01:16:47;;;;;;;15.47;8.83;;;;;;;4.69;70.13;99078.50;5003680;28;20321;-79
2022/03/13 01:19:16;;;;;;;18.87;9.43;;;;;;;4.68;70.41;99075.94;4994145;28;20334;-78
2022/03/13 01:21:49;;;;;;;16.90;9.10;;;;;;;4.50;73.83;99070.53;5008249;28;20221;-78
2022/03/13 01:24:24;;;;;;;15.70;8.93;;;;;;;4.48;76.70;99072.38;5067379;28;20345;-78
2022/03/13 01:26:55;;;;;;;12.33;9.07;;;;;;;4.39;78.27;99071.88;5107716;28;20194;-78
2022/03/13 01:29:27;;;;;;;14.30;9.60;;;;;;;4.44;78.42;99070.81;5104978;28;20211;-78
2022/03/13 01:31:57;;;;;;;15.00;9.67;;;;;;;4.38;79.75;99075.44;5106283;28;20195;-78
2022/03/13 01:34:46;;;;;;;14.60;9.33;;;;;;;4.37;80.11;99069.34;5109440;28;20244;-78
2022/03/13 01:37:28;;;;;;;14.30;8.70;;;;;;;4.59;79.80;99066.69;5121287;27;20190;-79
2022/03/13 01:39:59;;;;;;;15.07;9.40;;;;;;;4.53;75.89;99067.78;5148298;27;20206;-78
2022/03/13 01:42:28;;;;;;;15.07;9.90;;;;;;;4.26;75.02;99066.28;5150481;27;20218;-78
2022/03/13 01:44:59;;;;;;;14.60;9.70;;;;;;;4.35;74.47;99065.94;5150603;27;20186;-80
2022/03/13 01:47:28;;;;;;;14.93;9.47;;;;;;;4.22;75.84;99068.16;5152643;27;20305;-78
2022/03/13 01:49:57;;;;;;;14.83;9.63;;;;;;;4.15;80.16;99064.09;5151163;27;20212;-78
2022/03/13 01:52:27;;;;;;;14.07;9.47;;;;;;;3.98;82.64;99063.91;5148658;27;20715;-78
2022/03/13 01:54:56;;;;;;;16.43;9.80;;;;;;;3.93;83.43;99061.44;5152893;27;20197;-78
2022/03/13 01:57:25;;;;;;;13.77;9.17;;;;;;;3.84;83.36;99055.69;5152649;27;20200;-78
2022/03/13 01:59:56;;;;;;;15.47;8.37;;;;;;;3.98;81.23;99058.66;5147173;27;20201;-78
2022/03/13 02:02:29;;;;;;;12.87;8.63;;;;;;;3.84;83.40;99053.09;5144370;27;20213;-78
2022/03/13 02:04:58;;;;;;;12.67;8.73;;;;;;;3.79;84.52;99049.81;5150026;27;20198;-78
2022/03/13 02:07:29;;;;;;;13.40;8.37;;;;;;;3.91;85.91;99047.56;5149932;27;20189;-77
2022/03/13 02:09:58;;;;;;;12.47;8.53;;;;;;;3.84;86.53;99039.97;5091774;28;20188;-78
2022/03/13 02:12:27;;;;;;;13.70;8.53;;;;;;;4.03;85.04;99044.44;5085920;28;20192;-78
2022/03/13 02:14:56;;;;;;;14.77;8.97;;;;;;;3.77;85.50;99041.16;5087853;28;20282;-78
2022/03/13 02:17:28;;;;;;;14.60;8.73;;;;;;;3.83;85.28;99046.13;5083379;28;20184;-78
2022/03/13 02:19:57;;;;;;;15.63;9.17;;;;;;;3.76;85.88;99042.88;5086799;28;20215;-78
2022/03/13 02:22:26;;;;;;;13.37;9.00;;;;;;;3.81;83.67;99038.34;5086883;28;20245;-78
2022/03/13 02:24:56;;;;;;;16.37;8.57;;;;;;;3.76;82.14;99036.81;5091280;28;20677;-78
2022/03/13 02:27:29;;;;;;;17.40;8.70;;;;;;;3.63;83.02;99031.19;5084026;28;20226;-78
2022/03/13 02:30:01;;;;;;;11.13;8.17;;;;;;;3.56;83.31;99032.31;5010381;28;20239;-78
2022/03/13 02:32:30;;;;;;;13.27;8.10;;;;;;;3.57;82.55;99032.28;5004296;28;20206;-78
2022/03/13 02:34:58;;;;;;;11.80;8.03;;;;;;;3.63;80.60;99026.81;5031906;28;20193;-78
2022/03/13 02:37:37;;;;;;;13.43;8.37;;;;;;;3.69;79.82;99023.97;5007076;28;20198;-78
2022/03/13 02:40:15;;;;;;;14.23;8.40;;;;;;;3.61;78.66;99026.00;5007338;28;20213;-78
2022/03/13 02:42:43;;;;;;;12.97;7.63;;;;;;;3.61;78.40;99027.78;5004991;28;20228;-78
2022/03/13 02:45:12;;;;;;;12.67;7.53;;;;;;;3.46;77.90;99023.97;5011320;28;20193;-79
2022/03/13 02:47:44;;;;;;;11.00;7.60;;;;;;;3.42;77.72;99027.63;5008418;28;20210;-78
2022/03/13 02:50:25;;;;;;;10.70;7.60;;;;;;;3.33;79.08;99018.34;4974842;28;20313;-78
2022/03/13 02:52:55;;;;;;;12.93;7.47;;;;;;;3.40;79.39;99026.81;4951605;28;20196;-78
2022/03/13 02:55:27;;;;;;;10.57;6.93;;;;;;;3.42;77.80;99022.38;4965095;28;20198;-78
2022/03/13 02:57:56;;;;;;;10.17;6.90;;;;;;;3.53;76.47;99016.75;5010279;28;20205;-78
2022/03/13 03:00:43;;;;;;;9.50;6.50;;;;;;;3.52;75.69;99020.28;5011116;28;20191;-78
2022/03/13 03:03:14;;;;;;;12.20;7.20;;;;;;;3.60;73.85;99023.47;5011230;28;20222;-78
2022/03/13 03:05:44;;;;;;;11.97;7.27;;;;;;;3.64;73.57;99012.78;4986639;28;20307;-77
2022/03/13 03:08:13;;;;;;;10.50;7.17;;;;;;;3.59;74.69;99016.50;4989224;28;20191;-78
2022/03/13 03:10:45;;;;;;;11.97;7.50;;;;;;;3.54;75.12;99013.22;4998840;28;20202;-78
2022/03/13 03:13:16;;;;;;;11.47;6.70;;;;;;;3.57;75.02;99010.47;5024774;28;20314;-78
2022/03/13 03:15:46;;;;;;;11.70;7.40;;;;;;;3.45;76.57;99015.25;5025778;28;20190;-79
2022/03/13 03:18:20;;;;;;;9.93;6.83;;;;;;;3.24;77.88;99007.34;5023530;28;20248;-78
2022/03/13 03:20:48;;;;;;;10.97;7.13;;;;;;;3.20;78.93;99011.00;5025208;28;20201;-78
2022/03/13 03:23:17;;;;;;;11.90;7.10;;;;;;;3.07;81.10;99006.19;5031111;28;20322;-78
2022/03/13 03:25:48;;;;;;;9.43;6.63;;;;;;;3.01;82.72;99008.19;5063694;28;20195;-78
2022/03/13 03:28:18;;;;;;;9.60;6.73;;;;;;;2.83;85.80;99009.69;5065031;28;20201;-78
2022/03/13 03:30:48;;;;;;;11.00;7.17;;;;;;;2.81;87.90;99009.75;5065805;28;20205;-78
2022/03/13 03:33:22;;;;;;;11.77;7.23;;;;;;;2.69;89.42;99010.16;5122311;27;20649;-78
2022/03/13 03:35:52;;;;;;;11.10;7.10;;;;;;;2.69;91.25;98999.69;5156159;27;20193;-77
2022/03/13 03:38:22;;;;;;;9.93;7.17;;;;;;;2.61;93.10;99006.13;5152899;27;20204;-78
2022/03/13 03:40:58;;;;;;;11.40;7.23;;;;;;;2.57;94.34;99007.97;5154831;27;20277;-78
2022/03/13 03:43:28;;;;;;;9.63;7.13;;;;;;;2.58;94.79;99013.13;5106399;27;20208;-78
2022/03/13 03:45:57;;;;;;;11.80;7.03;;;;;;;2.51;95.75;99003.81;5148762;27;20222;-78
2022/03/13 03:48:25;;;;;;;12.13;7.60;;;;;;;2.53;95.93;99009.00;5149783;27;20200;-78
2022/03/13 03:50:54;;;;;;;11.67;7.63;;;;;;;2.43;95.99;99018.06;5155495;27;20647;-78
2022/03/13 03:53:23;;;;;;;11.47;7.40;;;;;;;2.30;96.57;99007.13;5153086;27;20198;-78
2022/03/13 03:55:54;;;;;;;10.03;6.70;;;;;;;2.34;97.56;99015.75;5157978;27;20245;-78
2022/03/13 03:58:24;;;;;;;10.47;7.50;;;;;;;2.33;97.12;99017.50;5149467;27;20193;-78
2022/03/13 04:00:54;;;;;;;10.67;7.20;;;;;;;2.37;97.15;99016.47;5089284;28;20206;-78
2022/03/13 04:03:22;;;;;;;10.00;6.97;;;;;;;2.31;98.07;99019.28;5030085;28;20770;-78
2022/03/13 04:05:53;;;;;;;11.43;7.10;;;;;;;2.19;98.88;99020.53;4981544;28;20283;-78
2022/03/13 04:08:24;;;;;;;14.30;7.27;;;;;;;2.22;99.34;99019.59;5033895;28;20196;-77
2022/03/13 04:10:55;;;;;;;11.77;6.87;;;;;;;2.11;98.79;99022.53;5029977;28;20205;-78
2022/03/13 04:13:38;;;;;;;9.60;6.67;;;;;;;2.21;99.11;99013.50;5022766;28;20320;-78
2022/03/13 04:16:10;;;;;;;10.50;6.87;;;;;;;2.26;97.92;99022.06;5028805;28;20198;-78
2022/03/13 04:18:38;;;;;;;10.97;7.37;;;;;;;2.23;97.89;99018.72;5050254;28;20191;-78
2022/03/13 04:21:08;;;;;;;13.30;7.00;;;;;;;2.01;97.99;99022.00;5104151;27;20212;-78
2022/03/13 04:23:42;;;;;;;11.37;6.70;;;;;;;2.06;98.95;99021.00;5152700;27;20236;-78
2022/03/13 04:26:14;;;;;;;9.60;6.77;;;;;;;2.04;99.15;99020.22;5151710;27;20225;-78
2022/03/13 04:28:45;;;;;;;10.90;7.20;;;;;;;2.06;99.26;99015.78;5147895;27;20193;-78
2022/03/13 04:31:14;;;;;;;11.87;6.57;;;;;;;2.12;99.26;99019.03;5049323;28;20246;-78
2022/03/13 04:33:44;;;;;;;8.83;6.27;;;;;;;2.24;99.11;99021.28;5046529;28;20189;-78
2022/03/13 04:36:14;;;;;;;10.33;6.67;;;;;;;2.16;99.51;99018.03;5051187;28;20205;-78
2022/03/13 04:38:43;;;;;;;9.60;6.30;;;;;;;2.15;98.36;99020.72;4991424;28;20234;-78
2022/03/13 04:41:12;;;;;;;10.27;6.80;;;;;;;2.16;99.07;99022.41;4993126;28;20206;-77
2022/03/13 04:43:40;;;;;;;11.57;7.03;;;;;;;2.18;96.34;99016.22;4993828;28;20238;-77
2022/03/13 04:46:25;;;;;;;10.37;7.23;;;;;;;2.13;96.39;99019.91;4928105;28;20251;-78
2022/03/13 04:48:57;;;;;;;11.73;7.10;;;;;;;2.12;97.58;99015.56;4982804;28;20699;-78
2022/03/13 04:51:26;;;;;;;10.30;6.50;;;;;;;2.18;97.25;99018.00;5043343;28;20679;-78
2022/03/13 04:53:56;;;;;;;11.37;6.77;;;;;;;2.08;98.10;99019.19;5052317;28;20201;-78
2022/03/13 04:56:28;;;;;;;13.23;6.93;;;;;;;2.11;97.85;99021.69;5048397;28;20197;-78
2022/03/13 04:58:59;;;;;;;10.50;6.20;;;;;;;2.19;96.80;99020.53;5049517;28;20201;-78
2022/03/13 05:01:31;;;;;;;10.63;7.07;;;;;;;2.26;96.72;99013.38;5049964;28;20193;-77
2022/03/13 05:03:59;;;;;;;11.90;6.80;;;;;;;2.22;96.39;99024.81;5076576;27;20213;-77
2022/03/13 05:06:29;;;;;;;9.93;5.77;;;;;;;2.16;95.33;99025.03;5149273;27;20201;-78
2022/03/13 05:08:58;;;;;;;11.83;6.27;;;;;;;2.13;94.59;99036.44;5146375;27;20182;-79
2022/03/13 05:11:26;;;;;;;10.97;7.03;;;;;;;2.01;94.78;99039.41;5147813;27;20208;-78
2022/03/13 05:13:55;;;;;;;9.67;6.40;;;;;;;2.07;94.56;99036.63;5150511;27;20198;-78
2022/03/13 05:16:23;;;;;;;9.70;6.30;;;;;;;2.00;93.89;99049.00;5151250;27;20193;-77
2022/03/13 05:18:53;;;;;;;10.17;6.50;;;;;;;1.96;94.60;99046.56;5073865;28;20196;-77
2022/03/13 05:21:25;;;;;;;10.80;5.83;;;;;;;2.02;95.11;99051.56;5070040;28;20321;-79
2022/03/13 05:23:54;;;;;;;8.33;6.20;;;;;;;1.95;95.73;99045.69;5068187;28;20196;-77
2022/03/13 05:26:25;;;;;;;9.70;6.23;;;;;;;1.83;97.13;99058.25;5067444;28;20192;-78
2022/03/13 05:28:54;;;;;;;9.93;6.60;;;;;;;1.81;97.96;99049.63;5062074;28;20242;-78
2022/03/13 05:31:24;;;;;;;9.83;6.93;;;;;;;1.85;98.79;99056.47;5029666;28;20271;-78
2022/03/13 05:33:55;;;;;;;12.33;7.03;;;;;;;1.85;99.08;99057.34;5029551;28;20197;-78
2022/03/13 05:36:24;;;;;;;10.17;6.53;;;;;;;1.87;99.37;99054.69;5028449;28;20201;-77
2022/03/13 05:38:53;;;;;;;9.57;6.30;;;;;;;1.94;99.14;99054.44;4987819;28;20203;-78
2022/03/13 05:41:22;;;;;;;14.67;6.80;;;;;;;1.85;99.13;99052.13;4987123;28;20199;-78
2022/03/13 05:43:51;;;;;;;10.53;6.17;;;;;;;1.73;100.00;99057.69;5012956;28;20190;-78
2022/03/13 05:46:20;;;;;;;11.37;6.27;;;;;;;1.85;100.00;99053.88;5031512;28;20724;-78
2022/03/13 05:48:49;;;;;;;9.67;6.60;;;;;;;1.79;100.00;99060.13;5038563;28;20200;-78
2022/03/13 05:51:21;;;;;;;9.67;6.77;;;;;;;1.72;100.00;99056.81;5092973;28;20197;-78
2022/03/13 05:53:50;;;;;;;12.57;7.67;;;;;;;1.94;100.00;99061.44;5037754;28;20265;-78
2022/03/13 05:56:18;;;;;;;10.87;7.03;;;;;;;1.89;100.00;99064.16;5094934;27;20254;-78
2022/03/13 05:58:48;;;;;;;12.53;7.40;;;;;;;1.96;100.00;99051.78;5150805;27;20193;-78
2022/03/13 06:01:17;;;;;;;9.90;6.67;;;;;;;1.85;100.00;99061.72;5143209;27;20221;-78
2022/03/13 06:03:48;;;;;;;10.10;6.83;;;;;;;1.86;100.00;99060.78;5144792;27;20201;-78
2022/03/13 06:06:18;;;;;;;9.30;6.10;;;;;;;1.93;100.00;99067.53;5042482;28;20220;-77
2022/03/13 06:08:46;;;;;;;11.80;6.90;;;;;;;1.88;100.00;99059.84;5042899;28;20193;-78
2022/03/13 06:14:00;;;;;;;9.50;6.50;;;;;;;1.76;100.00;99073.28;5049303;28;20201;-78
2022/03/13 06:16:35;;;;;;;15.03;10.43;;;;;;;1.74;100.00;99077.69;4971071;28;20223;-78
2022/03/13 06:19:06;;;;;;;14.37;8.60;;;;;;;1.40;100.00;99070.81;4968635;28;20203;-78
2022/03/13 06:21:37;;;;;;;8.77;6.50;;;;;;;1.61;100.00;99077.19;4974015;28;20203;-79
2022/03/13 06:24:06;;;;;;;11.53;6.47;;;;;;;1.38;100.00;99077.84;5002886;28;20635;-78
2022/03/13 06:26:36;;;;;;;9.87;7.00;;;;;;;1.58;100.00;99084.25;5068371;28;20212;-78
2022/03/13 06:29:05;;;;;;;10.27;6.57;;;;;;;1.75;98.33;99087.22;5067532;28;20192;-78
2022/03/13 06:31:33;;;;;;;11.80;6.00;;;;;;;1.80;95.55;99080.09;5067452;28;20257;-78
2022/03/13 06:34:02;;;;;;;8.90;6.17;;;;;;;1.82;94.95;99090.50;4987713;28;20197;-78
2022/03/13 06:36:30;;;;;;;9.77;6.70;;;;;;;1.93;94.24;99089.31;5045436;28;20215;-78
2022/03/13 06:39:00;;;;;;;11.20;6.47;;;;;;;1.91;94.87;99095.44;5043355;28;20193;-78
2022/03/13 06:41:29;;;;;;;9.50;6.73;;;;;;;1.97;95.79;99096.13;5046616;28;20189;-78
2022/03/13 06:43:57;;;;;;;9.93;6.70;;;;;;;1.94;96.84;99098.00;5010294;28;20206;-78
2022/03/13 06:46:27;;;;;;;10.43;6.70;;;;;;;2.06;96.84;99100.22;5006747;28;20241;-78
2022/03/13 06:48:56;;;;;;;11.23;7.30;;;;;;;2.19;95.76;99100.69;5008799;28;20202;-78
2022/03/13 06:51:25;;;;;;;9.40;6.63;;;;;;;2.26;94.77;99102.22;5017422;28;20203;-78
2022/03/13 06:53:54;;;;;;;11.10;7.13;;;;;;;2.35;93.33;99099.31;5104588;28;20202;-79
2022/03/13 06:56:26;;;;;;;11.57;7.23;;;;;;;2.50;92.84;99104.03;5100292;28;20198;-79
2022/03/13 06:59:03;;;;;;;10.43;6.90;;;;;;;2.46;93.61;99102.44;5069580;28;20192;-78
2022/03/13 07:01:34;;;;;;;12.37;8.27;;;;;;;2.43;93.00;99110.38;5013264;28;20200;-78
2022/03/13 07:04:02;;;;;;;12.40;8.23;;;;;;;2.57;91.98;99102.09;5027898;28;20310;-78
2022/03/13 07:06:33;;;;;;;10.63;6.83;;;;;;;2.66;88.94;99108.78;5023318;28;20245;-78
2022/03/13 07:09:01;;;;;;;11.73;6.80;;;;;;;2.87;86.67;99115.91;5034627;28;20212;-78
2022/03/13 07:11:34;;;;;;;10.63;7.23;;;;;;;3.03;86.41;99116.25;5037429;28;20190;-78
2022/03/13 07:14:09;;;;;;;11.17;6.73;;;;;;;3.11;84.43;99111.63;5034541;28;20193;-78
2022/03/13 07:16:38;;;;;;;11.33;6.73;;;;;;;3.17;82.89;99108.75;5034882;28;20212;-78
2022/03/13 07:19:07;;;;;;;10.63;6.87;;;;;;;3.29;80.65;99126.69;5033837;28;20190;-78
2022/03/13 07:21:37;;;;;;;9.27;6.60;;;;;;;3.49;79.47;99112.88;5037058;28;20193;-78
2022/03/13 07:24:06;;;;;;;12.17;6.67;;;;;;;3.73;76.69;99116.34;5059812;28;20210;-78
2022/03/13 07:26:37;;;;;;;11.90;7.10;;;;;;;4.02;73.38;99113.50;5132609;27;20349;-78
2022/03/13 07:29:05;;;;;;;10.63;7.60;;;;;;;4.27;70.39;99110.78;5154948;27;20193;-78
2022/03/13 07:31:35;;;;;;;13.90;8.40;;;;;;;4.32;69.56;99116.69;5155866;27;20217;-78
2022/03/13 07:34:04;;;;;;;9.83;6.83;;;;;;;4.49;63.81;99108.16;5105795;27;20707;-78
2022/03/13 07:36:34;;;;;;;10.90;6.90;;;;;;;4.36;68.64;99112.19;5152224;27;20278;-80
2022/03/13 07:39:03;;;;;;;13.07;8.10;;;;;;;4.46;71.78;99120.56;5120638;27;20197;-78
2022/03/13 07:41:31;;;;;;;11.90;8.03;;;;;;;4.44;83.33;99123.25;5146037;27;20194;-79
2022/03/13 07:44:04;;;;;;;7.93;5.90;;;;;;;4.62;70.31;99126.88;5149966;27;20208;-78
2022/03/13 07:46:32;;;;;;;10.33;6.50;;;;;;;4.52;71.56;99131.63;5150812;27;20328;-78
2022/03/13 07:49:02;;;;;;;9.50;5.07;;;;;;;5.11;56.07;99125.69;5157498;27;20189;-78
2022/03/13 07:51:34;;;;;;;7.30;4.90;;;;;;;5.20;53.63;99120.97;5153845;27;20189;-79
2022/03/13 07:54:02;;;;;;;8.13;6.00;;;;;;;5.24;48.74;99120.81;5147858;27;20201;-78
2022/03/13 07:56:32;;;;;;;8.03;5.53;;;;;;;5.41;46.64;99118.31;5112318;28;20243;-78
2022/03/13 07:59:04;;;;;;;7.20;5.80;;;;;;;5.68;45.48;99116.19;5101227;28;20195;-78
2022/03/13 08:01:33;;;;;;;8.63;5.70;;;;;;;5.64;44.08;99117.28;5107714;28;20198;-78
2022/03/13 08:04:04;;;;;;;8.83;6.00;;;;;;;5.75;44.11;99108.91;5115300;27;20198;-78
2022/03/13 08:06:36;;;;;;;7.10;5.20;;;;;;;5.96;43.83;99109.72;5105608;28;20291;-78
2022/03/13 08:09:08;;;;;;;9.93;5.50;;;;;;;5.81;43.08;99102.53;5114990;28;20194;-78
2022/03/13 08:11:38;;;;;;;6.83;5.10;;;;;;;5.73;42.81;99108.97;5115169;28;20195;-78
2022/03/13 08:14:10;;;;;;;10.40;5.50;;;;;;;5.84;43.51;99105.88;5118100;27;20217;-78
2022/03/13 08:16:38;;;;;;;9.30;6.20;;;;;;;6.18;42.87;99106.97;5151768;27;20194;-78
2022/03/13 08:19:09;;;;;;;8.57;5.13;;;;;;;6.37;42.14;99107.81;5158936;27;20185;-78
2022/03/13 08:21:37;;;;;;;10.43;6.47;;;;;;;6.52;42.29;99108.84;5149876;27;20189;-78
2022/03/13 08:24:07;;;;;;;7.77;5.47;;;;;;;6.63;41.44;99114.44;5151413;27;20201;-78
2022/03/13 08:26:38;;;;;;;11.23;5.27;;;;;;;6.58;42.00;99116.44;5149888;27;20221;-78
2022/03/13 08:29:09;;;;;;;14.67;4.97;;;;;;;6.69;40.61;99122.03;5159981;27;20205;-78
2022/03/13 08:31:38;;;;;;;9.57;5.27;;;;;;;6.69;40.55;99114.16;5146687;27;20194;-78
2022/03/13 08:34:10;;;;;;;8.23;4.80;;;;;;;6.47;40.92;99103.81;5151239;27;20198;-78
2022/03/13 08:36:47;;;;;;;6.57;5.00;;;;;;;6.78;40.69;99102.31;5150481;27;20201;-78
2022/03/13 08:39:17;;;;;;;8.00;4.70;;;;;;;6.90;40.79;99106.97;5153920;27;20238;-78
2022/03/13 08:41:50;;;;;;;9.57;4.97;;;;;;;7.06;40.42;99107.91;5149488;27;20648;-78
2022/03/13 08:44:21;;;;;;;6.93;4.77;;;;;;;7.18;40.35;99104.66;5156143;27;20222;-78
2022/03/13 08:46:51;;;;;;;8.63;4.90;;;;;;;7.21;40.83;99108.91;5153936;27;20287;-78
2022/03/13 08:52:08;;;;;;;6.23;4.67;;;;;;;7.31;39.78;99109.28;5157989;27;20193;-79
2022/03/13 08:54:42;;;;;;;8.50;5.10;;;;;;;7.39;40.16;99099.19;5147407;27;20202;-78
2022/03/13 08:57:12;;;;;;;8.27;5.30;;;;;;;7.62;39.74;99095.34;5048357;28;20197;-78
2022/03/13 08:59:42;;;;;;;7.73;5.23;;;;;;;7.85;39.39;99092.34;5048356;28;20251;-78
2022/03/13 09:02:11;;;;;;;7.83;5.30;;;;;;;7.74;38.70;99092.94;5054442;28;20193;-78
2022/03/13 09:04:41;;;;;;;8.37;4.90;;;;;;;8.00;38.29;99094.13;5047772;28;20201;-79
2022/03/13 09:07:10;;;;;;;8.77;5.67;;;;;;;8.20;38.20;99093.06;5048382;28;20220;-78
2022/03/13 09:09:38;;;;;;;8.80;4.87;;;;;;;8.34;38.04;99089.66;5049925;28;20211;-78
2022/03/13 09:12:09;;;;;;;8.13;5.67;;;;;;;8.44;37.97;99085.59;5051785;28;20196;-79
2022/03/13 09:14:39;;;;;;;7.90;5.47;;;;;;;8.45;37.54;99084.66;5072164;27;20350;-79
2022/03/13 09:17:09;;;;;;;8.17;5.00;;;;;;;8.55;37.14;99072.63;5144272;27;20197;-78
2022/03/13 09:19:38;;;;;;;8.27;5.70;;;;;;;8.63;37.34;99081.91;5149458;27;20201;-78
2022/03/13 09:22:07;;;;;;;6.87;5.10;;;;;;;8.89;37.12;99075.97;5149649;27;20194;-79
2022/03/13 09:24:36;;;;;;;8.40;5.20;;;;;;;8.88;36.84;99080.41;5156945;27;20186;-79
2022/03/13 09:27:05;;;;;;;8.40;5.00;;;;;;;9.06;36.12;99083.75;5151870;27;20216;-78
2022/03/13 09:29:33;;;;;;;8.70;4.97;;;;;;;9.21;35.71;99087.28;5153110;27;20189;-78
2022/03/13 09:32:02;;;;;;;6.37;4.47;;;;;;;9.21;35.63;99087.28;5153047;27;20185;-78
2022/03/13 09:34:36;;;;;;;7.60;5.23;;;;;;;9.47;35.39;99091.00;5147471;27;20186;-79
2022/03/13 09:37:05;;;;;;;7.73;5.00;;;;;;;9.54;35.03;99088.81;5153067;27;20254;-78
2022/03/13 09:39:36;;;;;;;6.60;5.20;;;;;;;9.69;34.85;99079.97;5146576;27;20292;-78
2022/03/13 09:42:05;;;;;;;8.17;6.23;;;;;;;9.87;34.91;99092.06;5046437;28;20189;-79
2022/03/13 09:44:33;;;;;;;8.20;5.87;;;;;;;10.14;34.50;99088.63;5047709;28;20197;-78
2022/03/13 09:47:02;;;;;;;7.90;5.53;;;;;;;10.03;34.09;99084.84;5049342;28;20225;-79
2022/03/13 09:49:33;;;;;;;5.53;4.83;;;;;;;10.19;33.69;99089.16;5043063;28;20355;-79
2022/03/13 09:52:02;;;;;;;6.27;5.10;;;;;;;10.39;33.68;99095.88;5046294;28;20201;-78
2022/03/13 09:54:32;;;;;;;9.60;6.03;;;;;;;10.51;33.49;99095.06;5009186;28;20255;-78
2022/03/13 09:57:02;;;;;;;8.03;6.00;;;;;;;10.52;33.14;99087.06;5002463;28;20202;-78
2022/03/13 09:59:31;;;;;;;8.03;5.53;;;;;;;10.93;33.17;99083.47;4961617;28;20194;-79
2022/03/13 10:01:59;;;;;;;9.27;5.63;;;;;;;11.18;32.92;99091.47;5022065;28;20189;-79
2022/03/13 10:04:28;;;;;;;6.83;5.40;;;;;;;11.29;32.59;99090.75;5023403;28;20205;-79
2022/03/13 10:07:16;;;;;;;7.73;5.70;;;;;;;11.36;32.10;99084.06;5060849;28;20285;-79
2022/03/13 10:09:45;;;;;;;7.97;5.50;;;;;;;11.57;32.19;99087.03;5084577;28;20192;-79
2022/03/13 10:12:16;;;;;;;8.33;5.80;;;;;;;11.42;32.21;99083.66;5103879;27;20193;-79
2022/03/13 10:15:03;;;;;;;8.83;5.83;;;;;;;11.70;31.96;99073.78;5149484;27;20197;-79
2022/03/13 10:17:34;;;;;;;8.03;5.60;;;;;;;11.91;31.98;99068.81;5153157;27;20197;-78
2022/03/13 10:20:16;;;;;;;6.93;5.20;;;;;;;12.08;31.98;99060.50;5155525;27;20185;-79
2022/03/13 10:22:48;;;;;;;7.57;5.40;;;;;;;12.12;31.25;99058.47;5132604;27;20292;-79
2022/03/13 10:25:30;;;;;;;8.20;5.50;;;;;;;12.18;31.23;99058.03;5155420;27;20196;-78
2022/03/13 10:28:22;;;;;;;7.73;5.73;;;;;;;12.12;31.22;99056.66;5143657;27;20221;-79
2022/03/13 10:31:11;;;;;;;7.70;5.73;;;;;;;12.46;31.24;99055.06;5154989;27;20198;-79
2022/03/13 10:34:00;;;;;;;9.27;5.67;;;;;;;12.44;31.31;99051.66;5155577;27;20198;-79
2022/03/13 10:36:35;;;;;;;7.70;5.60;;;;;;;12.63;30.63;99052.94;5152141;27;20193;-79
2022/03/13 10:39:22;;;;;;;9.60;5.33;;;;;;;12.54;31.01;99057.97;5153025;27;20191;-79
2022/03/13 10:41:56;;;;;;;9.37;6.30;;;;;;;12.79;30.89;99056.16;5154288;27;20419;-79
2022/03/13 10:47:10;;;;;;;9.57;5.90;;;;;;;12.61;29.94;99061.03;5170749;27;20239;-80
2022/03/13 10:49:44;;;;;;;8.63;6.47;;;;;;;12.90;30.14;99053.56;5104472;28;20198;-79
2022/03/13 10:52:30;;;;;;;9.03;6.03;;;;;;;13.36;30.11;99053.59;5108650;28;20198;-79
2022/03/13 10:55:20;;;;;;;7.23;5.90;;;;;;;13.69;29.32;99052.75;5109750;28;20191;-79
2022/03/13 10:57:49;;;;;;;7.10;5.60;;;;;;;13.82;29.37;99046.50;5101949;28;20199;-80
2022/03/13 11:00:18;;;;;;;8.17;6.07;;;;;;;13.50;29.34;99049.00;5102971;28;20244;-79
2022/03/13 11:02:46;;;;;;;8.53;5.80;;;;;;;13.40;29.62;99041.72;5068397;28;20208;-80
2022/03/13 11:05:14;;;;;;;7.57;6.20;;;;;;;13.72;29.73;99043.72;5061276;28;20212;-79
2022/03/13 11:07:43;;;;;;;7.97;5.70;;;;;;;14.07;29.67;99040.88;5060982;28;20216;-79
2022/03/13 11:10:13;;;;;;;8.33;6.10;;;;;;;14.16;29.06;99044.63;5062256;28;20639;-80
2022/03/13 11:12:46;;;;;;;9.80;6.77;;;;;;;14.25;28.58;99039.41;5016810;28;20193;-80
2022/03/13 11:15:15;;;;;;;7.47;5.90;;;;;;;13.89;28.70;99039.69;5119308;28;20206;-80
2022/03/13 11:17:49;;;;;;;7.93;6.07;;;;;;;14.25;28.64;99030.56;5127431;28;20191;-79
2022/03/13 11:20:19;;;;;;;9.43;6.00;;;;;;;14.29;28.50;99045.34;5121922;28;20191;-80
2022/03/13 11:22:48;;;;;;;9.27;6.73;;;;;;;14.19;29.04;99039.94;5128586;28;20195;-80
2022/03/13 11:25:18;;;;;;;9.10;6.13;;;;;;;14.38;28.68;99044.63;5132682;28;20189;-79
2022/03/13 11:27:48;;;;;;;9.87;6.53;;;;;;;14.45;28.62;99037.81;5155414;27;20215;-79
2022/03/13 11:30:30;;;;;;;8.53;6.33;;;;;;;14.41;27.96;99027.53;5170627;27;20214;-79
2022/03/13 11:33:03;;;;;;;9.07;5.80;;;;;;;14.62;27.90;99036.44;5165529;27;20178;-80
2022/03/13 11:35:39;;;;;;;8.57;6.37;;;;;;;15.01;28.04;99026.94;5164584;27;20192;-79
2022/03/13 11:38:22;;;;;;;7.67;6.17;;;;;;;15.27;28.50;99019.38;5088510;28;20249;-79
2022/03/13 11:40:51;;;;;;;8.77;6.70;;;;;;;15.39;27.97;99020.16;5082079;28;20192;-79
2022/03/13 11:43:23;;;;;;;9.60;6.70;;;;;;;15.55;27.77;99017.88;5080570;28;20214;-79
2022/03/13 11:45:54;;;;;;;9.13;6.30;;;;;;;15.09;28.21;99008.47;5039467;28;20230;-79
2022/03/13 11:48:43;;;;;;;9.93;6.30;;;;;;;15.50;28.16;99006.72;5088779;28;20298;-79
2022/03/13 11:51:28;;;;;;;8.40;6.40;;;;;;;15.82;28.04;99003.94;5083682;28;20639;-79
2022/03/13 11:53:58;;;;;;;11.33;6.70;;;;;;;15.38;28.42;99003.28;4955668;28;20204;-79
2022/03/13 11:56:29;;;;;;;10.07;7.23;;;;;;;15.59;27.94;99000.59;4986388;28;20277;-80
2022/03/13 11:59:18;;;;;;;8.33;6.40;;;;;;;15.88;27.62;98997.22;5020762;28;20401;-79
2022/03/13 12:01:52;;;;;;;9.63;6.40;;;;;;;15.90;27.55;98992.56;5031527;28;20564;-80